CST,Max TemperatureF,Mean TemperatureF,Min TemperatureF,Max Dew PointF,MeanDew PointF,Min DewpointF,Max Humidity, Mean Humidity, Min Humidity, Max Sea Level PressureIn, Mean Sea Level PressureIn, Min Sea Level PressureIn, Max VisibilityMiles, Mean VisibilityMiles, Min VisibilityMiles, Max Wind SpeedMPH, Mean Wind SpeedMPH, Max Gust SpeedMPH,PrecipitationIn, CloudCover, Events, WindDirDegrees
2012-2-1,53,43,33,39,35,30,93,74,54,30.17,30.11,30.03,10,10,10,7,3,,0.00,0,,280
2012-2-2,60,46,32,37,33,30,96,64,34,30.32,30.26,30.18,10,10,9,8,5,,0.00,0,,176
2012-2-3,52,44,36,40,36,32,87,76,53,30.33,30.24,30.14,10,8,5,21,10,31,0.26,5,Rain,85
2012-2-4,42,40,37,39,37,35,100,92,81,30.20,30.11,30.06,10,3,2,23,17,31,0.08,8,Rain,64
2012-2-5,44,37,30,36,31,27,93,84,63,30.35,30.28,30.18,10,7,3,13,9,,0.00,6,Rain,350
2012-2-6,39,34,28,28,27,26,96,82,60,30.31,30.24,30.19,10,7,3,10,6,,0.00,4,,250
2012-2-7,33,30,28,30,28,25,93,90,85,30.41,30.31,30.19,9,3,1,13,7,,0.01,6,Snow,15
2012-2-8,32,29,23,28,24,19,93,81,69,30.48,30.42,30.38,10,9,2,12,8,,0.00,7,Snow,349
2012-2-9,33,26,19,27,20,12,89,75,64,30.40,30.28,30.13,10,10,8,9,5,,0.00,5,,213
2012-2-10,35,27,18,30,21,10,82,74,63,30.36,30.11,29.99,10,9,4,24,12,31,0.00,8,Rain,289
2012-2-11,25,18,10,10,4,0,74,56,34,30.61,30.52,30.35,10,10,10,24,16,33,0.00,1,,318
2012-2-12,35,24,12,8,3,1,65,46,25,30.58,30.46,30.26,10,10,10,14,9,20,0.00,0,,265
2012-2-13,30,28,26,29,24,6,96,82,37,30.24,29.98,29.84,10,3,0,14,9,,0.05,8,Fog-Snow,168
2012-2-14,36,33,28,30,29,26,100,88,75,30.00,29.91,29.82,10,6,2,10,7,,0.00,6,,220
2012-2-15,42,35,28,39,35,26,100,89,79,30.01,29.97,29.91,10,5,0,10,6,,0.11,6,Fog-Rain,169
2012-2-16,46,40,33,37,33,24,100,83,47,30.23,30.13,29.96,10,4,0,14,8,,0.00,4,Fog,300
2012-2-17,54,41,28,31,28,24,82,61,41,30.21,30.13,30.05,10,10,10,21,7,26,0.00,2,,225
2012-2-18,42,33,24,26,23,19,81,68,49,30.24,30.19,30.15,10,10,10,13,8,18,0.00,0,,16
2012-2-19,42,35,27,22,19,16,78,59,35,30.21,30.17,30.13,10,10,10,9,6,,0.00,1,,73
2012-2-20,46,36,25,28,23,19,78,60,37,30.23,30.05,29.73,10,10,10,17,10,23,0.00,2,Rain,140
2012-2-21,52,44,36,38,31,23,87,66,32,29.82,29.75,29.63,10,10,7,24,12,34,0.00,4,,235
2012-2-22,55,44,34,32,28,27,75,53,35,29.72,29.53,29.44,10,10,10,17,8,21,0.00,5,,238
2012-2-23,57,48,39,43,38,29,93,76,51,29.49,29.41,29.28,10,9,4,23,8,30,0.15,6,Rain,158
2012-2-24,39,34,30,33,26,18,89,73,51,30.14,29.86,29.49,10,8,2,28,19,37,0.00,7,Rain-Snow,297
2012-2-25,36,30,23,21,16,12,72,57,41,30.35,30.24,30.13,10,10,10,24,13,36,0.00,2,,267
2012-2-26,61,44,28,29,23,16,70,45,27,30.17,30.06,29.96,10,10,10,29,15,41,0.00,0,,193
2012-2-27,44,36,28,26,19,14,75,55,35,30.48,30.41,30.19,10,10,10,17,9,21,0.00,0,,342
2012-2-28,59,44,30,49,32,21,83,64,37,30.43,30.04,29.56,10,10,6,17,12,24,0.09,7,Rain-Thunderstorm,133
2012-2-29,61,48,35,55,33,24,82,54,35,29.83,29.63,29.49,10,10,8,34,21,46,0.01,2,Rain,249